sensor_id;sensor_type;location;lat;lon;timestamp;pressure;altitude;pressure_sealevel;temperature;humidity
10006;BME280;5042;42.626;23.382;2023-04-20T00:01:51;94001.63;;;10.78;100.00
10006;BME280;5042;42.626;23.382;2023-04-20T00:04:17;93998.19;;;10.71;100.00
10006;BME280;5042;42.626;23.382;2023-04-20T00:06:46;93995.56;;;10.71;100.00
10006;BME280;5042;42.626;23.382;2023-04-20T00:09:13;93993.56;;;10.73;100.00
10006;BME280;5042;42.626;23.382;2023-04-20T00:11:40;93981.44;;;10.72;100.00
10006;BME280;5042;42.626;23.382;2023-04-20T00:14:07;93980.63;;;10.65;100.00
10006;BME280;5042;42.626;23.382;2023-04-20T00:16:34;93988.91;;;10.68;100.00
10006;BME280;5042;42.626;23.382;2023-04-20T00:19:01;93982.44;;;10.64;100.00
10006;BME280;5042;42.626;23.382;2023-04-20T00:21:27;93984.25;;;10.57;100.00
10006;BME280;5042;42.626;23.382;2023-04-20T00:23:55;93978.59;;;10.60;100.00
10006;BME280;5042;42.626;23.382;2023-04-20T00:26:22;93977.97;;;10.58;100.00
10006;BME280;5042;42.626;23.382;2023-04-20T00:28:49;93978.59;;;10.60;100.00
10006;BME280;5042;42.626;23.382;2023-04-20T00:31:16;93984.06;;;10.58;100.00
10006;BME280;5042;42.626;23.382;2023-04-20T00:33:42;93974.34;;;10.52;100.00
10006;BME280;5042;42.626;23.382;2023-04-20T00:36:09;93976.94;;;10.46;100.00
10006;BME280;5042;42.626;23.382;2023-04-20T00:38:36;93971.94;;;10.57;100.00
10006;BME280;5042;42.626;23.382;2023-04-20T00:41:04;93970.94;;;10.58;100.00
10006;BME280;5042;42.626;23.382;2023-04-20T00:43:31;93966.09;;;10.55;100.00
10006;BME280;5042;42.626;23.382;2023-04-20T00:45:58;93963.66;;;10.60;100.00
10006;BME280;5042;42.626;23.382;2023-04-20T00:48:25;93971.13;;;10.57;100.00
10006;BME280;5042;42.626;23.382;2023-04-20T00:50:51;93969.91;;;10.53;100.00
10006;BME280;5042;42.626;23.382;2023-04-20T00:53:18;93959.66;;;10.51;100.00
10006;BME280;5042;42.626;23.382;2023-04-20T00:55:46;93959.66;;;10.51;100.00
10006;BME280;5042;42.626;23.382;2023-04-20T00:58:14;93964.06;;;10.51;100.00
10006;BME280;5042;42.626;23.382;2023-04-20T01:00:41;93956.59;;;10.48;100.00
10006;BME280;5042;42.626;23.382;2023-04-20T01:03:08;93971.94;;;10.44;100.00
10006;BME280;5042;42.626;23.382;2023-04-20T01:05:35;93964.06;;;10.44;100.00
10006;BME280;5042;42.626;23.382;2023-04-20T01:08:02;93958.81;;;10.37;100.00
10006;BME280;5042;42.626;23.382;2023-04-20T01:10:29;93963.25;;;10.37;100.00
10006;BME280;5042;42.626;23.382;2023-04-20T01:12:55;93956.69;;;10.19;100.00
10006;BME280;5042;42.626;23.382;2023-04-20T01:15:24;93953.09;;;10.21;100.00
10006;BME280;5042;42.626;23.382;2023-04-20T01:17:50;93961.31;;;10.17;100.00
10006;BME280;5042;42.626;23.382;2023-04-20T01:20:17;93964.75;;;10.11;100.00
10006;BME280;5042;42.626;23.382;2023-04-20T01:22:47;93946.53;;;9.96;100.00
10006;BME280;5042;42.626;23.382;2023-04-20T01:25:14;93967.13;;;10.00;100.00
10006;BME280;5042;42.626;23.382;2023-04-20T01:27:42;93958.47;;;9.99;100.00
10006;BME280;5042;42.626;23.382;2023-04-20T01:30:09;93964.69;;;9.98;100.00
10006;BME280;5042;42.626;23.382;2023-04-20T01:32:36;93961.06;;;9.99;100.00
10006;BME280;5042;42.626;23.382;2023-04-20T01:35:04;93957.00;;;9.96;100.00
10006;BME280;5042;42.626;23.382;2023-04-20T01:37:31;93955.78;;;9.86;100.00
10006;BME280;5042;42.626;23.382;2023-04-20T01:39:59;93959.41;;;9.91;100.00
10006;BME280;5042;42.626;23.382;2023-04-20T01:42:26;93962.63;;;9.87;100.00
10006;BME280;5042;42.626;23.382;2023-04-20T01:44:53;93954.13;;;9.78;100.00
10006;BME280;5042;42.626;23.382;2023-04-20T01:47:20;93959.34;;;9.71;100.00
10006;BME280;5042;42.626;23.382;2023-04-20T01:49:46;93956.09;;;9.69;100.00
10006;BME280;5042;42.626;23.382;2023-04-20T01:52:13;93954.50;;;9.68;100.00
10006;BME280;5042;42.626;23.382;2023-04-20T01:54:40;93951.09;;;9.74;100.00
10006;BME280;5042;42.626;23.382;2023-04-20T01:57:08;93950.28;;;9.74;100.00
10006;BME280;5042;42.626;23.382;2023-04-20T01:59:35;93946.47;;;9.76;100.00
10006;BME280;5042;42.626;23.382;2023-04-20T02:02:01;93947.09;;;9.79;100.00
10006;BME280;5042;42.626;23.382;2023-04-20T02:04:28;93945.47;;;9.84;100.00
10006;BME280;5042;42.626;23.382;2023-04-20T02:06:55;93936.25;;;9.88;100.00
10006;BME280;5042;42.626;23.382;2023-04-20T02:09:22;93944.91;;;9.89;100.00
10006;BME280;5042;42.626;23.382;2023-04-20T02:11:48;93940.25;;;9.84;100.00
10006;BME280;5042;42.626;23.382;2023-04-20T02:14:16;93950.75;;;9.91;100.00
10006;BME280;5042;42.626;23.382;2023-04-20T02:16:43;93939.25;;;9.85;100.00
10006;BME280;5042;42.626;23.382;2023-04-20T02:19:11;93942.47;;;9.81;100.00
10006;BME280;5042;42.626;23.382;2023-04-20T02:21:37;93942.88;;;9.77;100.00
10006;BME280;5042;42.626;23.382;2023-04-20T02:24:05;93945.03;;;9.74;100.00
10006;BME280;5042;42.626;23.382;2023-04-20T02:26:31;93942.06;;;9.84;100.00
10006;BME280;5042;42.626;23.382;2023-04-20T02:28:58;93946.69;;;9.82;100.00
10006;BME280;5042;42.626;23.382;2023-04-20T02:31:26;93942.44;;;9.74;100.00
10006;BME280;5042;42.626;23.382;2023-04-20T02:33:53;93947.66;;;9.74;100.00
10006;BME280;5042;42.626;23.382;2023-04-20T02:36:19;93945.22;;;9.72;100.00
10006;BME280;5042;42.626;23.382;2023-04-20T02:38:46;93944.88;;;9.75;100.00
10006;BME280;5042;42.626;23.382;2023-04-20T02:41:13;93947.13;;;9.85;100.00
10006;BME280;5042;42.626;23.382;2023-04-20T02:43:40;93953.75;;;9.81;100.00
10006;BME280;5042;42.626;23.382;2023-04-20T02:46:06;93945.31;;;9.86;100.00
10006;BME280;5042;42.626;23.382;2023-04-20T02:48:34;93950.94;;;9.89;100.00
10006;BME280;5042;42.626;23.382;2023-04-20T02:51:01;93940.47;;;9.89;100.00
10006;BME280;5042;42.626;23.382;2023-04-20T02:53:28;93951.56;;;9.91;100.00
10006;BME280;5042;42.626;23.382;2023-04-20T02:55:55;93952.59;;;9.97;100.00
10006;BME280;5042;42.626;23.382;2023-04-20T02:58:22;93938.84;;;9.82;100.00
10006;BME280;5042;42.626;23.382;2023-04-20T03:00:48;93955.56;;;9.81;100.00
10006;BME280;5042;42.626;23.382;2023-04-20T03:03:15;93957.78;;;9.84;100.00
10006;BME280;5042;42.626;23.382;2023-04-20T03:05:43;93951.31;;;9.80;100.00
10006;BME280;5042;42.626;23.382;2023-04-20T03:08:10;93953.16;;;9.86;100.00
10006;BME280;5042;42.626;23.382;2023-04-20T03:10:37;93948.72;;;9.86;100.00
10006;BME280;5042;42.626;23.382;2023-04-20T03:13:04;93950.53;;;9.86;100.00
10006;BME280;5042;42.626;23.382;2023-04-20T03:15:31;93939.03;;;9.80;100.00
10006;BME280;5042;42.626;23.382;2023-04-20T03:17:57;93950.72;;;9.77;100.00
10006;BME280;5042;42.626;23.382;2023-04-20T03:20:24;93942.00;;;9.70;100.00
10006;BME280;5042;42.626;23.382;2023-04-20T03:22:52;93953.06;;;9.66;100.00
10006;BME280;5042;42.626;23.382;2023-04-20T03:25:20;93946.06;;;9.73;100.00
10006;BME280;5042;42.626;23.382;2023-04-20T03:27:47;93952.91;;;9.74;100.00
10006;BME280;5042;42.626;23.382;2023-04-20T03:30:14;93942.81;;;9.71;100.00
10006;BME280;5042;42.626;23.382;2023-04-20T03:32:41;93960.94;;;9.72;100.00
10006;BME280;5042;42.626;23.382;2023-04-20T03:35:09;93946.66;;;9.68;100.00
10006;BME280;5042;42.626;23.382;2023-04-20T03:37:36;93951.47;;;9.71;100.00
10006;BME280;5042;42.626;23.382;2023-04-20T03:40:05;93911.28;;;9.44;100.00
10006;BME280;5042;42.626;23.382;2023-04-20T03:42:32;93945.09;;;9.81;100.00
10006;BME280;5042;42.626;23.382;2023-04-20T03:44:59;93947.69;;;9.81;100.00
10006;BME280;5042;42.626;23.382;2023-04-20T03:47:26;93952.13;;;9.87;100.00
10006;BME280;5042;42.626;23.382;2023-04-20T03:49:52;93955.00;;;9.92;100.00
10006;BME280;5042;42.626;23.382;2023-04-20T03:52:19;93958.44;;;9.92;100.00
10006;BME280;5042;42.626;23.382;2023-04-20T03:54:46;93952.81;;;10.02;100.00
10006;BME280;5042;42.626;23.382;2023-04-20T03:57:14;93956.81;;;9.98;100.00
10006;BME280;5042;42.626;23.382;2023-04-20T03:59:41;93954.34;;;9.83;100.00
10006;BME280;5042;42.626;23.382;2023-04-20T04:02:08;93963.63;;;9.86;100.00
10006;BME280;5042;42.626;23.382;2023-04-20T04:04:35;93964.22;;;9.81;100.00
10006;BME280;5042;42.626;23.382;2023-04-20T04:07:02;93957.81;;;9.90;100.00
10006;BME280;5042;42.626;23.382;2023-04-20T04:09:29;93964.28;;;10.01;100.00
10006;BME280;5042;42.626;23.382;2023-04-20T04:11:55;93962.31;;;10.10;100.00
10006;BME280;5042;42.626;23.382;2023-04-20T04:14:24;93968.34;;;10.10;100.00
10006;BME280;5042;42.626;23.382;2023-04-20T04:16:50;93977.25;;;10.23;100.00
10006;BME280;5042;42.626;23.382;2023-04-20T04:19:18;93972.22;;;10.21;100.00
10006;BME280;5042;42.626;23.382;2023-04-20T04:21:45;93981.06;;;10.13;100.00
10006;BME280;5042;42.626;23.382;2023-04-20T04:24:12;93977.63;;;10.06;100.00
10006;BME280;5042;42.626;23.382;2023-04-20T04:26:38;93976.59;;;10.07;100.00
10006;BME280;5042;42.626;23.382;2023-04-20T04:29:05;93971.59;;;10.12;100.00
10006;BME280;5042;42.626;23.382;2023-04-20T04:31:33;93977.19;;;10.03;100.00
10006;BME280;5042;42.626;23.382;2023-04-20T04:34:00;93973.97;;;10.07;100.00
10006;BME280;5042;42.626;23.382;2023-04-20T04:36:28;93975.00;;;10.13;100.00
10006;BME280;5042;42.626;23.382;2023-04-20T04:38:55;93977.03;;;10.17;100.00
10006;BME280;5042;42.626;23.382;2023-04-20T04:41:21;93977.25;;;10.16;100.00
10006;BME280;5042;42.626;23.382;2023-04-20T04:43:48;93978.44;;;10.20;100.00
10006;BME280;5042;42.626;23.382;2023-04-20T04:46:15;93988.75;;;10.22;100.00
10006;BME280;5042;42.626;23.382;2023-04-20T04:48:43;93988.56;;;10.23;100.00
10006;BME280;5042;42.626;23.382;2023-04-20T04:51:10;93987.34;;;10.26;100.00
10006;BME280;5042;42.626;23.382;2023-04-20T04:53:37;93995.41;;;10.24;100.00
10006;BME280;5042;42.626;23.382;2023-04-20T04:56:05;93987.78;;;10.29;100.00
10006;BME280;5042;42.626;23.382;2023-04-20T04:58:32;93998.69;;;10.33;100.00
10006;BME280;5042;42.626;23.382;2023-04-20T05:00:59;93993.44;;;10.33;100.00
10006;BME280;5042;42.626;23.382;2023-04-20T05:03:25;93998.28;;;10.36;100.00
10006;BME280;5042;42.626;23.382;2023-04-20T05:05:53;94000.69;;;10.31;100.00
10006;BME280;5042;42.626;23.382;2023-04-20T05:08:21;94001.91;;;10.28;100.00
10006;BME280;5042;42.626;23.382;2023-04-20T05:10:48;93912.22;;;9.71;100.00
10006;BME280;5042;42.626;23.382;2023-04-20T05:13:15;93998.25;;;10.29;100.00
10006;BME280;5042;42.626;23.382;2023-04-20T05:15:42;94001.44;;;10.25;100.00
10006;BME280;5042;42.626;23.382;2023-04-20T05:18:09;94001.66;;;10.23;100.00
10006;BME280;5042;42.626;23.382;2023-04-20T05:20:36;93993.78;;;10.23;100.00
10006;BME280;5042;42.626;23.382;2023-04-20T05:23:04;93994.19;;;10.27;100.00
10006;BME280;5042;42.626;23.382;2023-04-20T05:25:31;93993.22;;;10.28;100.00
10006;BME280;5042;42.626;23.382;2023-04-20T05:27:58;93997.53;;;10.42;100.00
10006;BME280;5042;42.626;23.382;2023-04-20T05:30:24;93995.88;;;10.41;100.00
10006;BME280;5042;42.626;23.382;2023-04-20T05:32:51;94000.53;;;10.46;100.00
10006;BME280;5042;42.626;23.382;2023-04-20T05:35:18;93902.19;;;9.82;100.00
10006;BME280;5042;42.626;23.382;2023-04-20T05:37:45;93949.22;;;10.10;100.00
10006;BME280;5042;42.626;23.382;2023-04-20T05:40:14;94001.94;;;10.48;100.00
10006;BME280;5042;42.626;23.382;2023-04-20T05:42:40;94005.59;;;10.60;100.00
10006;BME280;5042;42.626;23.382;2023-04-20T05:45:08;94004.81;;;10.67;100.00
10006;BME280;5042;42.626;23.382;2023-04-20T05:47:35;94012.91;;;10.72;100.00
10006;BME280;5042;42.626;23.382;2023-04-20T05:50:03;94013.31;;;10.69;100.00
10006;BME280;5042;42.626;23.382;2023-04-20T05:52:30;94008.84;;;10.69;100.00
10006;BME280;5042;42.626;23.382;2023-04-20T05:54:56;94011.09;;;10.66;100.00
10006;BME280;5042;42.626;23.382;2023-04-20T05:57:25;94014.09;;;10.56;100.00
10006;BME280;5042;42.626;23.382;2023-04-20T05:59:51;94006.22;;;10.56;100.00
10006;BME280;5042;42.626;23.382;2023-04-20T06:02:20;94001.81;;;10.63;100.00
10006;BME280;5042;42.626;23.382;2023-04-20T06:04:46;94007.25;;;10.61;100.00
10006;BME280;5042;42.626;23.382;2023-04-20T06:07:13;93999.78;;;10.72;100.00
10006;BME280;5042;42.626;23.382;2023-04-20T06:09:40;94001.59;;;10.65;100.00
10006;BME280;5042;42.626;23.382;2023-04-20T06:12:07;94003.38;;;10.57;100.00
10006;BME280;5042;42.626;23.382;2023-04-20T06:14:35;94007.44;;;10.60;100.00
10006;BME280;5042;42.626;23.382;2023-04-20T06:17:02;94007.06;;;10.63;100.00
10006;BME280;5042;42.626;23.382;2023-04-20T06:19:29;94012.69;;;10.67;100.00
10006;BME280;5042;42.626;23.382;2023-04-20T06:21:56;94018.13;;;10.65;100.00
10006;BME280;5042;42.626;23.382;2023-04-20T06:24:23;94013.47;;;10.60;100.00
10006;BME280;5042;42.626;23.382;2023-04-20T06:26:50;94016.09;;;10.60;100.00
10006;BME280;5042;42.626;23.382;2023-04-20T06:29:16;94017.31;;;10.65;100.00
10006;BME280;5042;42.626;23.382;2023-04-20T06:31:45;94009.88;;;10.68;100.00
10006;BME280;5042;42.626;23.382;2023-04-20T06:34:12;94019.38;;;10.76;100.00
10006;BME280;5042;42.626;23.382;2023-04-20T06:36:41;94000.00;;;10.77;100.00
10006;BME280;5042;42.626;23.382;2023-04-20T06:39:07;94011.72;;;10.88;100.00
10006;BME280;5042;42.626;23.382;2023-04-20T06:41:36;94015.16;;;10.88;100.00
10006;BME280;5042;42.626;23.382;2023-04-20T06:44:02;94023.59;;;10.77;100.00
10006;BME280;5042;42.626;23.382;2023-04-20T06:46:29;94031.28;;;10.78;100.00
10006;BME280;5042;42.626;23.382;2023-04-20T06:48:57;94025.84;;;10.80;100.00
10006;BME280;5042;42.626;23.382;2023-04-20T06:51:24;94034.09;;;10.70;100.00
10006;BME280;5042;42.626;23.382;2023-04-20T06:53:51;94028.59;;;10.65;100.00
10006;BME280;5042;42.626;23.382;2023-04-20T06:56:18;94025.78;;;10.67;100.00
10006;BME280;5042;42.626;23.382;2023-04-20T06:58:45;94035.66;;;10.65;100.00
10006;BME280;5042;42.626;23.382;2023-04-20T07:01:12;94036.91;;;10.69;100.00
10006;BME280;5042;42.626;23.382;2023-04-20T07:03:39;94022.53;;;10.58;100.00
10006;BME280;5042;42.626;23.382;2023-04-20T07:06:07;94044.13;;;10.60;100.00
10006;BME280;5042;42.626;23.382;2023-04-20T07:08:35;94041.31;;;10.61;100.00
10006;BME280;5042;42.626;23.382;2023-04-20T07:11:02;94043.53;;;10.65;100.00
10006;BME280;5042;42.626;23.382;2023-04-20T07:13:29;94034.47;;;10.67;100.00
10006;BME280;5042;42.626;23.382;2023-04-20T07:15:56;94045.75;;;10.68;100.00
10006;BME280;5042;42.626;23.382;2023-04-20T07:18:23;94042.72;;;10.64;100.00
10006;BME280;5042;42.626;23.382;2023-04-20T07:20:51;94032.44;;;10.69;100.00
10006;BME280;5042;42.626;23.382;2023-04-20T07:23:19;94045.19;;;10.79;100.00
10006;BME280;5042;42.626;23.382;2023-04-20T07:25:46;94042.75;;;10.71;100.00
10006;BME280;5042;42.626;23.382;2023-04-20T07:28:13;94048.22;;;10.76;100.00
10006;BME280;5042;42.626;23.382;2023-04-20T07:30:39;94041.97;;;10.83;100.00
10006;BME280;5042;42.626;23.382;2023-04-20T07:33:06;94009.25;;;10.66;100.00
10006;BME280;5042;42.626;23.382;2023-04-20T07:35:35;94036.97;;;11.09;100.00
10006;BME280;5042;42.626;23.382;2023-04-20T07:38:02;94037.97;;;11.21;100.00
10006;BME280;5042;42.626;23.382;2023-04-20T07:40:30;94037.97;;;11.21;100.00
10006;BME280;5042;42.626;23.382;2023-04-20T07:42:57;94045.25;;;11.19;100.00
10006;BME280;5042;42.626;23.382;2023-04-20T07:45:24;94035.56;;;11.19;100.00
10006;BME280;5042;42.626;23.382;2023-04-20T07:47:51;94030.53;;;11.18;100.00
10006;BME280;5042;42.626;23.382;2023-04-20T07:50:19;94032.53;;;11.42;100.00
10006;BME280;5042;42.626;23.382;2023-04-20T07:52:46;94033.91;;;11.65;100.00
10006;BME280;5042;42.626;23.382;2023-04-20T07:55:13;94033.31;;;11.70;100.00
10006;BME280;5042;42.626;23.382;2023-04-20T07:57:41;94029.06;;;11.75;100.00
10006;BME280;5042;42.626;23.382;2023-04-20T08:00:09;94030.47;;;11.71;100.00
10006;BME280;5042;42.626;23.382;2023-04-20T08:02:37;94031.88;;;11.74;100.00
10006;BME280;5042;42.626;23.382;2023-04-20T08:05:04;94026.84;;;11.92;100.00
10006;BME280;5042;42.626;23.382;2023-04-20T08:07:32;94026.56;;;12.14;100.00
10006;BME280;5042;42.626;23.382;2023-04-20T08:09:58;94043.13;;;12.14;100.00
10006;BME280;5042;42.626;23.382;2023-04-20T08:12:27;94018.94;;;11.99;100.00
10006;BME280;5042;42.626;23.382;2023-04-20T08:14:55;94039.53;;;12.08;100.00
10006;BME280;5042;42.626;23.382;2023-04-20T08:17:25;94042.16;;;12.15;100.00
10006;BME280;5042;42.626;23.382;2023-04-20T08:19:51;94041.09;;;12.29;100.00
10006;BME280;5042;42.626;23.382;2023-04-20T08:22:18;94047.50;;;12.40;100.00
10006;BME280;5042;42.626;23.382;2023-04-20T08:24:45;94041.09;;;12.29;100.00
10006;BME280;5042;42.626;23.382;2023-04-20T08:27:12;94038.97;;;12.51;100.00
10006;BME280;5042;42.626;23.382;2023-04-20T08:29:39;94040.81;;;12.83;100.00
10006;BME280;5042;42.626;23.382;2023-04-20T08:32:07;94035.91;;;12.93;100.00
10006;BME280;5042;42.626;23.382;2023-04-20T08:34:35;94042.78;;;12.94;100.00
10006;BME280;5042;42.626;23.382;2023-04-20T08:37:02;94042.41;;;12.90;100.00
10006;BME280;5042;42.626;23.382;2023-04-20T08:39:29;94049.31;;;12.85;100.00
10006;BME280;5042;42.626;23.382;2023-04-20T08:41:56;94027.63;;;12.58;100.00
10006;BME280;5042;42.626;23.382;2023-04-20T08:44:23;94023.19;;;12.51;100.00
10006;BME280;5042;42.626;23.382;2023-04-20T08:46:50;94040.91;;;12.69;100.00
10006;BME280;5042;42.626;23.382;2023-04-20T08:49:18;94024.34;;;12.62;100.00
10006;BME280;5042;42.626;23.382;2023-04-20T08:51:46;94050.91;;;12.86;100.00
10006;BME280;5042;42.626;23.382;2023-04-20T08:54:13;94043.88;;;12.80;100.00
10006;BME280;5042;42.626;23.382;2023-04-20T08:56:42;94040.63;;;12.84;100.00
10006;BME280;5042;42.626;23.382;2023-04-20T08:59:09;94036.34;;;12.90;100.00
10006;BME280;5042;42.626;23.382;2023-04-20T09:01:38;94044.50;;;12.82;100.00
10006;BME280;5042;42.626;23.382;2023-04-20T09:04:15;94022.84;;;12.80;100.00
10006;BME280;5042;42.626;23.382;2023-04-20T09:06:47;94044.41;;;12.95;100.00
10006;BME280;5042;42.626;23.382;2023-04-20T09:09:15;94046.56;;;13.05;100.00
10006;BME280;5042;42.626;23.382;2023-04-20T09:11:42;94050.56;;;13.14;100.00
10006;BME280;5042;42.626;23.382;2023-04-20T09:14:11;94021.31;;;12.97;100.00
10006;BME280;5042;42.626;23.382;2023-04-20T09:16:47;94046.47;;;13.18;100.00
10006;BME280;5042;42.626;23.382;2023-04-20T09:19:20;94049.00;;;13.06;100.00
10006;BME280;5042;42.626;23.382;2023-04-20T09:21:49;94028.44;;;12.90;100.00
10006;BME280;5042;42.626;23.382;2023-04-20T09:24:16;94041.38;;;12.98;100.00
10006;BME280;5042;42.626;23.382;2023-04-20T09:26:42;94041.00;;;13.20;100.00
10006;BME280;5042;42.626;23.382;2023-04-20T09:29:15;94021.00;;;13.12;100.00
10006;BME280;5042;42.626;23.382;2023-04-20T09:31:42;94029.16;;;13.35;100.00
10006;BME280;5042;42.626;23.382;2023-04-20T09:34:08;94027.19;;;13.56;100.00
10006;BME280;5042;42.626;23.382;2023-04-20T09:36:37;94034.53;;;13.47;100.00
10006;BME280;5042;42.626;23.382;2023-04-20T09:39:08;94044.31;;;13.65;100.00
10006;BME280;5042;42.626;23.382;2023-04-20T09:41:35;94040.00;;;13.96;100.00
10006;BME280;5042;42.626;23.382;2023-04-20T09:44:03;94041.59;;;14.15;100.00
10006;BME280;5042;42.626;23.382;2023-04-20T09:46:32;94034.28;;;14.17;99.02
10006;BME280;5042;42.626;23.382;2023-04-20T09:49:02;94030.16;;;14.40;100.00
10006;BME280;5042;42.626;23.382;2023-04-20T09:51:30;94042.91;;;14.61;98.55
10006;BME280;5042;42.626;23.382;2023-04-20T09:53:58;94032.53;;;14.67;98.83
10006;BME280;5042;42.626;23.382;2023-04-20T09:56:27;94024.13;;;14.88;97.43
10006;BME280;5042;42.626;23.382;2023-04-20T09:58:55;94031.19;;;15.18;94.31
10006;BME280;5042;42.626;23.382;2023-04-20T10:01:23;94014.03;;;14.97;93.81
10006;BME280;5042;42.626;23.382;2023-04-20T10:03:51;93862.25;;;13.92;91.38
10006;BME280;5042;42.626;23.382;2023-04-20T10:06:20;93994.94;;;14.71;93.91
10006;BME280;5042;42.626;23.382;2023-04-20T10:08:47;94029.47;;;15.12;97.96
10006;BME280;5042;42.626;23.382;2023-04-20T10:11:27;94020.09;;;15.27;89.55
10006;BME280;5042;42.626;23.382;2023-04-20T10:13:55;94027.94;;;15.46;88.50
10006;BME280;5042;42.626;23.382;2023-04-20T10:16:21;94022.53;;;15.41;87.39
10006;BME280;5042;42.626;23.382;2023-04-20T10:18:55;94023.34;;;15.53;89.02
10006;BME280;5042;42.626;23.382;2023-04-20T10:21:23;94021.19;;;15.62;87.11
10006;BME280;5042;42.626;23.382;2023-04-20T10:23:51;94023.25;;;15.60;84.24
10006;BME280;5042;42.626;23.382;2023-04-20T10:26:18;93976.69;;;15.59;92.35
10006;BME280;5042;42.626;23.382;2023-04-20T10:28:46;93982.56;;;15.61;85.49
10006;BME280;5042;42.626;23.382;2023-04-20T10:31:13;94007.66;;;15.82;84.47
10006;BME280;5042;42.626;23.382;2023-04-20T10:33:51;94010.97;;;15.89;87.50
10006;BME280;5042;42.626;23.382;2023-04-20T10:36:26;93992.22;;;15.55;84.90
10006;BME280;5042;42.626;23.382;2023-04-20T10:38:54;94005.44;;;15.67;87.54
10006;BME280;5042;42.626;23.382;2023-04-20T10:41:20;94005.56;;;16.07;84.93
10006;BME280;5042;42.626;23.382;2023-04-20T10:43:49;93999.47;;;16.19;80.06
10006;BME280;5042;42.626;23.382;2023-04-20T10:46:16;93998.59;;;16.30;83.46
10006;BME280;5042;42.626;23.382;2023-04-20T10:48:53;94009.44;;;16.28;79.08
10006;BME280;5042;42.626;23.382;2023-04-20T10:51:21;94010.69;;;16.38;87.60
10006;BME280;5042;42.626;23.382;2023-04-20T10:54:02;93991.31;;;15.97;87.41
10006;BME280;5042;42.626;23.382;2023-04-20T10:56:40;94009.13;;;16.01;79.68
10006;BME280;5042;42.626;23.382;2023-04-20T10:59:10;94009.81;;;16.08;80.84
10006;BME280;5042;42.626;23.382;2023-04-20T11:01:38;94012.31;;;16.15;78.91
10006;BME280;5042;42.626;23.382;2023-04-20T11:04:05;93987.94;;;16.13;82.40
10006;BME280;5042;42.626;23.382;2023-04-20T11:06:32;94002.22;;;16.64;81.42
10006;BME280;5042;42.626;23.382;2023-04-20T11:08:59;94002.22;;;16.93;80.33
10006;BME280;5042;42.626;23.382;2023-04-20T11:11:26;94005.69;;;17.10;73.47
10006;BME280;5042;42.626;23.382;2023-04-20T11:14:04;93991.94;;;17.25;71.05
10006;BME280;5042;42.626;23.382;2023-04-20T11:16:32;93986.50;;;17.49;74.57
10006;BME280;5042;42.626;23.382;2023-04-20T11:19:00;93991.38;;;17.57;71.15
10006;BME280;5042;42.626;23.382;2023-04-20T11:21:35;93987.03;;;17.51;68.27
10006;BME280;5042;42.626;23.382;2023-04-20T11:24:03;93990.16;;;17.48;66.46
10006;BME280;5042;42.626;23.382;2023-04-20T11:26:34;93989.75;;;17.73;69.06
10006;BME280;5042;42.626;23.382;2023-04-20T11:29:01;93987.41;;;17.76;64.47
10006;BME280;5042;42.626;23.382;2023-04-20T11:31:28;93983.97;;;17.93;64.79
10006;BME280;5042;42.626;23.382;2023-04-20T11:33:56;93993.97;;;18.08;64.63
10006;BME280;5042;42.626;23.382;2023-04-20T11:36:24;93984.34;;;18.01;64.17
10006;BME280;5042;42.626;23.382;2023-04-20T11:38:52;93970.41;;;17.89;62.53
10006;BME280;5042;42.626;23.382;2023-04-20T11:41:20;93937.69;;;17.11;64.76
10006;BME280;5042;42.626;23.382;2023-04-20T11:43:47;93982.78;;;17.16;66.37
10006;BME280;5042;42.626;23.382;2023-04-20T11:46:15;93980.16;;;16.87;70.54
10006;BME280;5042;42.626;23.382;2023-04-20T11:48:42;93981.28;;;16.91;70.21
10006;BME280;5042;42.626;23.382;2023-04-20T11:51:10;93979.84;;;16.72;69.75
10006;BME280;5042;42.626;23.382;2023-04-20T11:53:37;93985.53;;;16.64;72.24
10006;BME280;5042;42.626;23.382;2023-04-20T11:56:05;93982.25;;;16.45;68.74
10006;BME280;5042;42.626;23.382;2023-04-20T11:58:31;93980.66;;;16.32;69.09
10006;BME280;5042;42.626;23.382;2023-04-20T12:00:58;93982.13;;;15.99;69.94
10006;BME280;5042;42.626;23.382;2023-04-20T12:03:25;93977.19;;;15.91;71.21
10006;BME280;5042;42.626;23.382;2023-04-20T12:05:52;93973.16;;;15.88;71.83
10006;BME280;5042;42.626;23.382;2023-04-20T12:08:20;93969.38;;;15.96;73.05
10006;BME280;5042;42.626;23.382;2023-04-20T12:10:48;93973.25;;;16.05;72.95
10006;BME280;5042;42.626;23.382;2023-04-20T12:13:15;93976.38;;;16.02;71.54
10006;BME280;5042;42.626;23.382;2023-04-20T12:15:41;93972.03;;;15.84;70.81
10006;BME280;5042;42.626;23.382;2023-04-20T12:18:08;93971.00;;;15.85;76.90
10006;BME280;5042;42.626;23.382;2023-04-20T12:20:35;93962.72;;;15.70;74.74
10006;BME280;5042;42.626;23.382;2023-04-20T12:23:02;93967.66;;;15.66;76.35
10006;BME280;5042;42.626;23.382;2023-04-20T12:25:30;93923.88;;;15.47;74.57
10006;BME280;5042;42.626;23.382;2023-04-20T12:27:57;93960.31;;;15.68;75.62
10006;BME280;5042;42.626;23.382;2023-04-20T12:30:23;93967.06;;;15.64;74.58
10006;BME280;5042;42.626;23.382;2023-04-20T12:32:50;93968.44;;;15.55;76.62
10006;BME280;5042;42.626;23.382;2023-04-20T12:35:17;93959.81;;;15.24;80.10
10006;BME280;5042;42.626;23.382;2023-04-20T12:37:45;93959.13;;;14.75;83.72
10006;BME280;5042;42.626;23.382;2023-04-20T12:40:12;93959.94;;;14.46;86.77
10006;BME280;5042;42.626;23.382;2023-04-20T12:42:40;93964.50;;;14.20;88.99
10006;BME280;5042;42.626;23.382;2023-04-20T12:45:07;93962.97;;;14.12;92.12
10006;BME280;5042;42.626;23.382;2023-04-20T12:47:35;93969.34;;;14.05;99.37
10006;BME280;5042;42.626;23.382;2023-04-20T12:50:02;93970.81;;;14.00;100.00
10006;BME280;5042;42.626;23.382;2023-04-20T12:52:29;93961.88;;;13.83;100.00
10006;BME280;5042;42.626;23.382;2023-04-20T12:54:55;93960.66;;;13.86;100.00
10006;BME280;5042;42.626;23.382;2023-04-20T12:57:22;93962.47;;;13.85;100.00